sensor_id;sensor_type;location;lat;lon;timestamp;P1;durP1;ratioP1;P2;durP2;ratioP2
8139;SDS011;4111;50.972;7.072;2022-07-04T00:01:30;2.37;;;1.60;;
8139;SDS011;4111;50.972;7.072;2022-07-04T00:03:57;2.33;;;1.40;;
8139;SDS011;4111;50.972;7.072;2022-07-04T00:06:24;1.83;;;1.40;;
8139;SDS011;4111;50.972;7.072;2022-07-04T00:08:50;2.10;;;1.60;;
8139;SDS011;4111;50.972;7.072;2022-07-04T00:11:17;2.73;;;1.50;;
8139;SDS011;4111;50.972;7.072;2022-07-04T00:13:43;3.63;;;1.87;;
8139;SDS011;4111;50.972;7.072;2022-07-04T00:16:10;4.73;;;1.40;;
8139;SDS011;4111;50.972;7.072;2022-07-04T00:18:36;8.33;;;1.67;;
8139;SDS011;4111;50.972;7.072;2022-07-04T00:21:03;3.60;;;1.73;;
8139;SDS011;4111;50.972;7.072;2022-07-04T00:23:29;5.83;;;1.30;;
8139;SDS011;4111;50.972;7.072;2022-07-04T00:25:56;4.27;;;1.80;;
8139;SDS011;4111;50.972;7.072;2022-07-04T00:28:22;2.50;;;1.83;;
8139;SDS011;4111;50.972;7.072;2022-07-04T00:30:49;2.00;;;1.67;;
8139;SDS011;4111;50.972;7.072;2022-07-04T00:33:15;2.97;;;1.47;;
8139;SDS011;4111;50.972;7.072;2022-07-04T00:35:42;1.83;;;1.67;;
8139;SDS011;4111;50.972;7.072;2022-07-04T00:38:09;1.67;;;1.40;;
8139;SDS011;4111;50.972;7.072;2022-07-04T00:43:04;1.53;;;1.40;;
8139;SDS011;4111;50.972;7.072;2022-07-04T00:45:31;4.20;;;1.80;;
8139;SDS011;4111;50.972;7.072;2022-07-04T00:47:57;3.37;;;1.70;;
8139;SDS011;4111;50.972;7.072;2022-07-04T00:50:24;1.60;;;1.50;;
8139;SDS011;4111;50.972;7.072;2022-07-04T00:52:52;3.10;;;1.47;;
8139;SDS011;4111;50.972;7.072;2022-07-04T00:55:20;5.03;;;1.90;;
8139;SDS011;4111;50.972;7.072;2022-07-04T00:57:48;1.63;;;1.53;;
8139;SDS011;4111;50.972;7.072;2022-07-04T01:00:16;1.80;;;1.60;;
8139;SDS011;4111;50.972;7.072;2022-07-04T01:02:44;3.53;;;2.00;;
8139;SDS011;4111;50.972;7.072;2022-07-04T01:05:12;1.77;;;1.60;;
8139;SDS011;4111;50.972;7.072;2022-07-04T01:07:39;1.67;;;1.57;;
8139;SDS011;4111;50.972;7.072;2022-07-04T01:10:06;1.87;;;1.70;;
8139;SDS011;4111;50.972;7.072;2022-07-04T01:12:34;1.73;;;1.63;;
8139;SDS011;4111;50.972;7.072;2022-07-04T01:15:01;3.30;;;1.87;;
8139;SDS011;4111;50.972;7.072;2022-07-04T01:17:28;3.33;;;1.70;;
8139;SDS011;4111;50.972;7.072;2022-07-04T01:19:55;1.73;;;1.60;;
8139;SDS011;4111;50.972;7.072;2022-07-04T01:22:22;2.60;;;1.70;;
8139;SDS011;4111;50.972;7.072;2022-07-04T01:24:49;4.07;;;1.43;;
8139;SDS011;4111;50.972;7.072;2022-07-04T01:27:16;2.80;;;1.80;;
8139;SDS011;4111;50.972;7.072;2022-07-04T01:29:44;7.93;;;1.80;;
8139;SDS011;4111;50.972;7.072;2022-07-04T01:32:11;2.73;;;1.50;;
8139;SDS011;4111;50.972;7.072;2022-07-04T01:34:37;3.37;;;1.50;;
8139;SDS011;4111;50.972;7.072;2022-07-04T01:37:09;1.60;;;1.50;;
8139;SDS011;4111;50.972;7.072;2022-07-04T01:39:36;2.43;;;1.83;;
8139;SDS011;4111;50.972;7.072;2022-07-04T01:42:03;2.30;;;1.90;;
8139;SDS011;4111;50.972;7.072;2022-07-04T01:44:30;8.77;;;1.63;;
8139;SDS011;4111;50.972;7.072;2022-07-04T01:46:57;1.90;;;1.70;;
8139;SDS011;4111;50.972;7.072;2022-07-04T01:49:23;3.20;;;1.90;;
8139;SDS011;4111;50.972;7.072;2022-07-04T01:51:50;8.40;;;1.70;;
8139;SDS011;4111;50.972;7.072;2022-07-04T01:54:17;2.23;;;1.43;;
8139;SDS011;4111;50.972;7.072;2022-07-04T01:56:44;3.70;;;1.67;;
8139;SDS011;4111;50.972;7.072;2022-07-04T01:59:11;1.73;;;1.50;;
8139;SDS011;4111;50.972;7.072;2022-07-04T02:01:37;2.87;;;1.70;;
8139;SDS011;4111;50.972;7.072;2022-07-04T02:04:05;3.40;;;1.73;;
8139;SDS011;4111;50.972;7.072;2022-07-04T02:06:33;2.20;;;1.70;;
8139;SDS011;4111;50.972;7.072;2022-07-04T02:09:01;1.97;;;1.53;;
8139;SDS011;4111;50.972;7.072;2022-07-04T02:11:43;2.93;;;1.57;;
8139;SDS011;4111;50.972;7.072;2022-07-04T02:14:30;2.17;;;1.90;;
8139;SDS011;4111;50.972;7.072;2022-07-04T02:16:57;3.73;;;1.70;;
8139;SDS011;4111;50.972;7.072;2022-07-04T02:19:23;1.90;;;1.50;;
8139;SDS011;4111;50.972;7.072;2022-07-04T02:21:50;2.37;;;1.80;;
8139;SDS011;4111;50.972;7.072;2022-07-04T02:24:18;2.83;;;1.70;;
8139;SDS011;4111;50.972;7.072;2022-07-04T02:26:45;2.90;;;1.93;;
8139;SDS011;4111;50.972;7.072;2022-07-04T02:29:13;1.80;;;1.60;;
8139;SDS011;4111;50.972;7.072;2022-07-04T02:31:40;2.77;;;1.80;;
8139;SDS011;4111;50.972;7.072;2022-07-04T02:34:07;2.50;;;1.77;;
8139;SDS011;4111;50.972;7.072;2022-07-04T02:36:34;2.47;;;1.70;;
8139;SDS011;4111;50.972;7.072;2022-07-04T02:39:01;2.73;;;1.63;;
8139;SDS011;4111;50.972;7.072;2022-07-04T02:41:28;3.43;;;1.90;;
8139;SDS011;4111;50.972;7.072;2022-07-04T02:43:54;1.90;;;1.70;;
8139;SDS011;4111;50.972;7.072;2022-07-04T02:46:22;3.00;;;1.47;;
8139;SDS011;4111;50.972;7.072;2022-07-04T02:48:49;2.00;;;1.50;;
8139;SDS011;4111;50.972;7.072;2022-07-04T02:51:15;1.33;;;1.23;;
8139;SDS011;4111;50.972;7.072;2022-07-04T02:53:42;3.23;;;1.70;;
8139;SDS011;4111;50.972;7.072;2022-07-04T02:56:09;1.83;;;1.73;;
8139;SDS011;4111;50.972;7.072;2022-07-04T02:58:35;2.90;;;1.73;;
8139;SDS011;4111;50.972;7.072;2022-07-04T03:01:02;2.00;;;1.90;;
8139;SDS011;4111;50.972;7.072;2022-07-04T03:03:29;2.33;;;1.50;;
8139;SDS011;4111;50.972;7.072;2022-07-04T03:05:55;3.37;;;1.77;;
8139;SDS011;4111;50.972;7.072;2022-07-04T03:08:29;2.00;;;1.77;;
8139;SDS011;4111;50.972;7.072;2022-07-04T03:10:55;3.00;;;1.67;;
8139;SDS011;4111;50.972;7.072;2022-07-04T03:13:22;8.97;;;1.90;;
8139;SDS011;4111;50.972;7.072;2022-07-04T03:15:48;1.60;;;1.50;;
8139;SDS011;4111;50.972;7.072;2022-07-04T03:18:15;1.60;;;1.50;;
8139;SDS011;4111;50.972;7.072;2022-07-04T03:20:42;2.57;;;1.90;;
8139;SDS011;4111;50.972;7.072;2022-07-04T03:23:08;2.00;;;1.87;;
8139;SDS011;4111;50.972;7.072;2022-07-04T03:25:35;3.80;;;1.73;;
8139;SDS011;4111;50.972;7.072;2022-07-04T03:28:02;2.37;;;1.70;;
8139;SDS011;4111;50.972;7.072;2022-07-04T03:30:29;2.00;;;1.57;;
8139;SDS011;4111;50.972;7.072;2022-07-04T03:32:56;1.73;;;1.60;;
8139;SDS011;4111;50.972;7.072;2022-07-04T03:35:22;2.00;;;1.43;;
8139;SDS011;4111;50.972;7.072;2022-07-04T03:37:49;2.03;;;1.80;;
8139;SDS011;4111;50.972;7.072;2022-07-04T03:40:20;2.67;;;1.73;;
8139;SDS011;4111;50.972;7.072;2022-07-04T03:42:47;1.90;;;1.60;;
8139;SDS011;4111;50.972;7.072;2022-07-04T03:45:13;2.07;;;1.80;;
8139;SDS011;4111;50.972;7.072;2022-07-04T03:47:40;1.87;;;1.77;;
8139;SDS011;4111;50.972;7.072;2022-07-04T03:50:07;3.13;;;1.70;;
8139;SDS011;4111;50.972;7.072;2022-07-04T03:52:34;3.77;;;1.80;;
8139;SDS011;4111;50.972;7.072;2022-07-04T03:55:00;2.90;;;1.80;;
8139;SDS011;4111;50.972;7.072;2022-07-04T03:57:27;2.23;;;1.47;;
8139;SDS011;4111;50.972;7.072;2022-07-04T03:59:53;2.27;;;1.70;;
8139;SDS011;4111;50.972;7.072;2022-07-04T04:02:20;3.27;;;1.80;;
8139;SDS011;4111;50.972;7.072;2022-07-04T04:04:47;2.60;;;1.80;;
8139;SDS011;4111;50.972;7.072;2022-07-04T04:07:31;2.50;;;1.87;;
8139;SDS011;4111;50.972;7.072;2022-07-04T04:09:58;3.97;;;1.67;;
8139;SDS011;4111;50.972;7.072;2022-07-04T04:12:24;2.13;;;1.57;;
8139;SDS011;4111;50.972;7.072;2022-07-04T04:14:51;2.87;;;2.00;;
8139;SDS011;4111;50.972;7.072;2022-07-04T04:17:17;7.40;;;1.60;;
8139;SDS011;4111;50.972;7.072;2022-07-04T04:19:44;5.00;;;2.00;;
8139;SDS011;4111;50.972;7.072;2022-07-04T04:22:11;1.70;;;1.60;;
8139;SDS011;4111;50.972;7.072;2022-07-04T04:24:37;1.63;;;1.53;;
8139;SDS011;4111;50.972;7.072;2022-07-04T04:27:03;2.07;;;1.87;;
8139;SDS011;4111;50.972;7.072;2022-07-04T04:29:30;2.40;;;1.77;;
8139;SDS011;4111;50.972;7.072;2022-07-04T04:31:57;2.77;;;1.90;;
8139;SDS011;4111;50.972;7.072;2022-07-04T04:34:23;3.77;;;1.73;;
8139;SDS011;4111;50.972;7.072;2022-07-04T04:36:50;1.93;;;1.73;;
8139;SDS011;4111;50.972;7.072;2022-07-04T04:39:16;1.80;;;1.70;;
8139;SDS011;4111;50.972;7.072;2022-07-04T04:41:42;2.33;;;1.73;;
8139;SDS011;4111;50.972;7.072;2022-07-04T04:44:09;2.67;;;1.90;;
8139;SDS011;4111;50.972;7.072;2022-07-04T04:46:35;2.43;;;1.93;;
8139;SDS011;4111;50.972;7.072;2022-07-04T04:49:02;4.20;;;1.70;;
8139;SDS011;4111;50.972;7.072;2022-07-04T04:51:28;3.40;;;2.10;;
8139;SDS011;4111;50.972;7.072;2022-07-04T04:53:55;2.20;;;2.00;;
8139;SDS011;4111;50.972;7.072;2022-07-04T04:56:22;3.20;;;2.20;;
8139;SDS011;4111;50.972;7.072;2022-07-04T04:58:48;3.93;;;1.93;;
8139;SDS011;4111;50.972;7.072;2022-07-04T05:01:14;2.30;;;2.00;;
8139;SDS011;4111;50.972;7.072;2022-07-04T05:04:01;2.83;;;2.30;;
8139;SDS011;4111;50.972;7.072;2022-07-04T05:06:27;7.37;;;2.30;;
8139;SDS011;4111;50.972;7.072;2022-07-04T05:08:54;2.87;;;2.27;;
8139;SDS011;4111;50.972;7.072;2022-07-04T05:11:21;5.57;;;3.07;;
8139;SDS011;4111;50.972;7.072;2022-07-04T05:13:47;3.70;;;1.80;;
8139;SDS011;4111;50.972;7.072;2022-07-04T05:16:14;5.77;;;2.00;;
8139;SDS011;4111;50.972;7.072;2022-07-04T05:18:40;4.53;;;2.00;;
8139;SDS011;4111;50.972;7.072;2022-07-04T05:21:07;3.53;;;2.37;;
8139;SDS011;4111;50.972;7.072;2022-07-04T05:23:33;1.97;;;1.83;;
8139;SDS011;4111;50.972;7.072;2022-07-04T05:26:00;3.20;;;2.47;;
8139;SDS011;4111;50.972;7.072;2022-07-04T05:28:26;2.20;;;2.03;;
8139;SDS011;4111;50.972;7.072;2022-07-04T05:30:52;2.33;;;2.00;;
8139;SDS011;4111;50.972;7.072;2022-07-04T05:33:19;2.97;;;2.17;;
8139;SDS011;4111;50.972;7.072;2022-07-04T05:35:45;5.60;;;2.40;;
8139;SDS011;4111;50.972;7.072;2022-07-04T05:38:12;2.90;;;1.83;;
8139;SDS011;4111;50.972;7.072;2022-07-04T05:40:38;2.87;;;2.37;;
8139;SDS011;4111;50.972;7.072;2022-07-04T05:43:05;4.47;;;2.30;;
8139;SDS011;4111;50.972;7.072;2022-07-04T05:45:31;5.40;;;2.30;;
8139;SDS011;4111;50.972;7.072;2022-07-04T05:47:58;3.13;;;2.20;;
8139;SDS011;4111;50.972;7.072;2022-07-04T05:50:24;3.43;;;2.23;;
8139;SDS011;4111;50.972;7.072;2022-07-04T05:52:57;3.87;;;1.87;;
8139;SDS011;4111;50.972;7.072;2022-07-04T05:55:24;5.23;;;2.63;;
8139;SDS011;4111;50.972;7.072;2022-07-04T05:57:51;2.60;;;2.23;;
8139;SDS011;4111;50.972;7.072;2022-07-04T06:00:17;6.57;;;3.43;;
8139;SDS011;4111;50.972;7.072;2022-07-04T06:02:44;4.17;;;2.20;;
8139;SDS011;4111;50.972;7.072;2022-07-04T06:05:10;4.53;;;2.37;;
8139;SDS011;4111;50.972;7.072;2022-07-04T06:07:37;5.90;;;2.47;;
8139;SDS011;4111;50.972;7.072;2022-07-04T06:10:04;4.63;;;2.60;;
8139;SDS011;4111;50.972;7.072;2022-07-04T06:12:31;6.50;;;3.10;;
8139;SDS011;4111;50.972;7.072;2022-07-04T06:14:58;6.03;;;2.30;;
8139;SDS011;4111;50.972;7.072;2022-07-04T06:17:25;5.17;;;2.20;;
8139;SDS011;4111;50.972;7.072;2022-07-04T06:19:51;6.53;;;2.37;;
8139;SDS011;4111;50.972;7.072;2022-07-04T06:22:18;9.97;;;2.80;;
8139;SDS011;4111;50.972;7.072;2022-07-04T06:24:50;4.33;;;2.30;;
8139;SDS011;4111;50.972;7.072;2022-07-04T06:27:17;7.20;;;2.23;;
8139;SDS011;4111;50.972;7.072;2022-07-04T06:29:43;3.60;;;2.20;;
8139;SDS011;4111;50.972;7.072;2022-07-04T06:32:10;4.60;;;2.17;;
8139;SDS011;4111;50.972;7.072;2022-07-04T06:34:36;5.10;;;2.43;;
8139;SDS011;4111;50.972;7.072;2022-07-04T06:37:21;6.23;;;2.60;;
8139;SDS011;4111;50.972;7.072;2022-07-04T06:39:48;5.57;;;2.57;;
8139;SDS011;4111;50.972;7.072;2022-07-04T06:42:14;5.23;;;2.70;;
8139;SDS011;4111;50.972;7.072;2022-07-04T06:44:41;6.23;;;2.63;;
8139;SDS011;4111;50.972;7.072;2022-07-04T06:47:08;4.80;;;3.00;;
8139;SDS011;4111;50.972;7.072;2022-07-04T06:49:34;3.80;;;2.50;;
8139;SDS011;4111;50.972;7.072;2022-07-04T06:52:01;5.87;;;2.70;;
8139;SDS011;4111;50.972;7.072;2022-07-04T06:54:28;6.07;;;2.90;;
8139;SDS011;4111;50.972;7.072;2022-07-04T06:56:54;5.70;;;2.50;;
8139;SDS011;4111;50.972;7.072;2022-07-04T06:59:41;4.87;;;2.80;;
8139;SDS011;4111;50.972;7.072;2022-07-04T07:02:08;4.87;;;2.43;;
8139;SDS011;4111;50.972;7.072;2022-07-04T07:04:34;4.70;;;2.47;;
8139;SDS011;4111;50.972;7.072;2022-07-04T07:07:01;10.43;;;2.60;;
8139;SDS011;4111;50.972;7.072;2022-07-04T07:09:27;2.93;;;2.10;;
8139;SDS011;4111;50.972;7.072;2022-07-04T07:11:54;5.30;;;2.20;;
8139;SDS011;4111;50.972;7.072;2022-07-04T07:14:20;5.03;;;1.93;;
8139;SDS011;4111;50.972;7.072;2022-07-04T07:16:47;6.53;;;2.37;;
8139;SDS011;4111;50.972;7.072;2022-07-04T07:19:13;3.73;;;1.50;;
8139;SDS011;4111;50.972;7.072;2022-07-04T07:21:42;2.77;;;1.67;;
8139;SDS011;4111;50.972;7.072;2022-07-04T07:24:09;1.97;;;1.53;;
8139;SDS011;4111;50.972;7.072;2022-07-04T07:26:35;4.00;;;1.70;;
8139;SDS011;4111;50.972;7.072;2022-07-04T07:29:02;4.13;;;1.87;;
8139;SDS011;4111;50.972;7.072;2022-07-04T07:31:29;3.77;;;1.83;;
8139;SDS011;4111;50.972;7.072;2022-07-04T07:33:55;4.30;;;1.60;;
8139;SDS011;4111;50.972;7.072;2022-07-04T07:36:22;7.93;;;1.97;;
8139;SDS011;4111;50.972;7.072;2022-07-04T07:38:48;8.93;;;1.40;;
8139;SDS011;4111;50.972;7.072;2022-07-04T07:41:15;4.73;;;1.57;;
8139;SDS011;4111;50.972;7.072;2022-07-04T07:43:41;3.87;;;1.33;;
8139;SDS011;4111;50.972;7.072;2022-07-04T07:46:08;3.00;;;1.33;;
8139;SDS011;4111;50.972;7.072;2022-07-04T07:48:34;3.10;;;1.63;;
8139;SDS011;4111;50.972;7.072;2022-07-04T07:51:01;2.80;;;1.40;;
8139;SDS011;4111;50.972;7.072;2022-07-04T07:53:28;1.83;;;1.20;;
8139;SDS011;4111;50.972;7.072;2022-07-04T07:55:54;3.13;;;1.20;;
8139;SDS011;4111;50.972;7.072;2022-07-04T07:58:21;3.67;;;1.27;;
8139;SDS011;4111;50.972;7.072;2022-07-04T08:00:47;2.13;;;1.10;;
8139;SDS011;4111;50.972;7.072;2022-07-04T08:03:22;2.77;;;0.97;;
8139;SDS011;4111;50.972;7.072;2022-07-04T08:06:09;5.13;;;1.67;;
8139;SDS011;4111;50.972;7.072;2022-07-04T08:08:36;5.20;;;1.60;;
8139;SDS011;4111;50.972;7.072;2022-07-04T08:11:02;4.30;;;1.20;;
8139;SDS011;4111;50.972;7.072;2022-07-04T08:13:30;3.67;;;1.20;;
8139;SDS011;4111;50.972;7.072;2022-07-04T08:15:57;1.73;;;1.20;;
8139;SDS011;4111;50.972;7.072;2022-07-04T08:18:23;3.20;;;1.40;;
8139;SDS011;4111;50.972;7.072;2022-07-04T08:20:50;2.10;;;1.10;;
8139;SDS011;4111;50.972;7.072;2022-07-04T08:23:37;3.73;;;1.10;;
8139;SDS011;4111;50.972;7.072;2022-07-04T08:26:17;5.07;;;2.67;;
8139;SDS011;4111;50.972;7.072;2022-07-04T08:28:43;2.40;;;1.40;;
8139;SDS011;4111;50.972;7.072;2022-07-04T08:31:10;2.90;;;1.27;;
8139;SDS011;4111;50.972;7.072;2022-07-04T08:33:54;3.70;;;1.37;;
8139;SDS011;4111;50.972;7.072;2022-07-04T08:36:21;5.33;;;1.50;;
8139;SDS011;4111;50.972;7.072;2022-07-04T08:38:47;4.53;;;1.20;;
8139;SDS011;4111;50.972;7.072;2022-07-04T08:41:17;4.23;;;1.27;;
8139;SDS011;4111;50.972;7.072;2022-07-04T08:43:50;4.73;;;1.33;;
8139;SDS011;4111;50.972;7.072;2022-07-04T08:46:19;3.27;;;1.77;;
8139;SDS011;4111;50.972;7.072;2022-07-04T08:48:51;1.40;;;1.20;;
8139;SDS011;4111;50.972;7.072;2022-07-04T08:51:21;2.67;;;1.23;;
8139;SDS011;4111;50.972;7.072;2022-07-04T08:53:58;3.23;;;1.33;;
8139;SDS011;4111;50.972;7.072;2022-07-04T08:56:27;2.70;;;0.90;;
8139;SDS011;4111;50.972;7.072;2022-07-04T08:59:12;2.17;;;1.00;;
8139;SDS011;4111;50.972;7.072;2022-07-04T09:01:40;1.97;;;1.07;;
8139;SDS011;4111;50.972;7.072;2022-07-04T09:04:09;2.70;;;0.90;;
8139;SDS011;4111;50.972;7.072;2022-07-04T09:06:37;4.15;;;1.17;;
8139;SDS011;4111;50.972;7.072;2022-07-04T09:09:04;1.85;;;1.13;;
8139;SDS011;4111;50.972;7.072;2022-07-04T09:11:32;4.33;;;1.37;;
8139;SDS011;4111;50.972;7.072;2022-07-04T09:13:59;1.90;;;0.95;;
8139;SDS011;4111;50.972;7.072;2022-07-04T09:16:25;2.28;;;1.10;;
8139;SDS011;4111;50.972;7.072;2022-07-04T09:18:53;2.10;;;0.98;;
8139;SDS011;4111;50.972;7.072;2022-07-04T09:21:20;2.10;;;1.10;;
8139;SDS011;4111;50.972;7.072;2022-07-04T09:24:07;1.80;;;1.30;;
8139;SDS011;4111;50.972;7.072;2022-07-04T09:26:34;2.97;;;0.98;;
8139;SDS011;4111;50.972;7.072;2022-07-04T09:29:06;1.35;;;0.90;;
8139;SDS011;4111;50.972;7.072;2022-07-04T09:31:33;1.05;;;0.95;;
8139;SDS011;4111;50.972;7.072;2022-07-04T09:34:00;2.10;;;1.20;;
8139;SDS011;4111;50.972;7.072;2022-07-04T09:36:32;5.05;;;1.13;;
8139;SDS011;4111;50.972;7.072;2022-07-04T09:39:14;1.25;;;0.90;;
8139;SDS011;4111;50.972;7.072;2022-07-04T09:47:21;3.67;;;1.30;;
8139;SDS011;4111;50.972;7.072;2022-07-04T09:52:55;1.52;;;0.70;;
8139;SDS011;4111;50.972;7.072;2022-07-04T09:55:27;1.35;;;0.98;;
8139;SDS011;4111;50.972;7.072;2022-07-04T09:57:57;2.08;;;1.10;;
8139;SDS011;4111;50.972;7.072;2022-07-04T10:00:27;1.17;;;1.05;;
8139;SDS011;4111;50.972;7.072;2022-07-04T10:02:56;2.28;;;1.13;;
8139;SDS011;4111;50.972;7.072;2022-07-04T10:05:25;2.92;;;2.25;;
8139;SDS011;4111;50.972;7.072;2022-07-04T10:07:54;3.10;;;1.10;;
8139;SDS011;4111;50.972;7.072;2022-07-04T10:10:34;2.13;;;1.15;;
8139;SDS011;4111;50.972;7.072;2022-07-04T10:13:06;2.00;;;0.88;;
8139;SDS011;4111;50.972;7.072;2022-07-04T10:15:36;3.15;;;0.95;;
8139;SDS011;4111;50.972;7.072;2022-07-04T10:18:07;1.45;;;0.98;;
8139;SDS011;4111;50.972;7.072;2022-07-04T10:20:35;2.60;;;1.10;;
8139;SDS011;4111;50.972;7.072;2022-07-04T10:23:02;1.38;;;1.27;;
8139;SDS011;4111;50.972;7.072;2022-07-04T10:25:29;1.98;;;0.90;;
8139;SDS011;4111;50.972;7.072;2022-07-04T10:27:56;2.58;;;1.10;;
8139;SDS011;4111;50.972;7.072;2022-07-04T10:30:30;1.30;;;1.00;;
8139;SDS011;4111;50.972;7.072;2022-07-04T10:33:05;2.38;;;1.05;;
8139;SDS011;4111;50.972;7.072;2022-07-04T10:38:17;1.80;;;1.10;;
8139;SDS011;4111;50.972;7.072;2022-07-04T10:40:54;1.67;;;1.10;;
8139;SDS011;4111;50.972;7.072;2022-07-04T10:54:32;2.22;;;1.20;;
8139;SDS011;4111;50.972;7.072;2022-07-04T10:57:12;3.42;;;1.38;;
8139;SDS011;4111;50.972;7.072;2022-07-04T10:59:40;3.03;;;1.48;;
8139;SDS011;4111;50.972;7.072;2022-07-04T11:02:29;3.38;;;1.10;;
8139;SDS011;4111;50.972;7.072;2022-07-04T11:04:57;4.88;;;1.60;;
8139;SDS011;4111;50.972;7.072;2022-07-04T11:17:59;1.58;;;1.00;;
8139;SDS011;4111;50.972;7.072;2022-07-04T11:20:28;5.68;;;1.40;;
8139;SDS011;4111;50.972;7.072;2022-07-04T11:23:12;4.43;;;1.50;;
8139;SDS011;4111;50.972;7.072;2022-07-04T11:25:41;2.67;;;1.27;;
8139;SDS011;4111;50.972;7.072;2022-07-04T11:28:25;2.20;;;1.40;;
8139;SDS011;4111;50.972;7.072;2022-07-04T11:31:11;2.25;;;1.17;;
8139;SDS011;4111;50.972;7.072;2022-07-04T11:33:40;3.53;;;1.50;;
8139;SDS011;4111;50.972;7.072;2022-07-04T11:36:13;2.63;;;1.33;;
8139;SDS011;4111;50.972;7.072;2022-07-04T11:41:21;1.90;;;1.25;;
8139;SDS011;4111;50.972;7.072;2022-07-04T11:44:13;3.60;;;1.27;;
8139;SDS011;4111;50.972;7.072;2022-07-04T11:47:17;2.85;;;1.55;;
8139;SDS011;4111;50.972;7.072;2022-07-04T11:52:17;2.75;;;1.55;;
8139;SDS011;4111;50.972;7.072;2022-07-04T11:55:03;2.75;;;1.30;;
8139;SDS011;4111;50.972;7.072;2022-07-04T11:57:36;2.08;;;1.25;;
8139;SDS011;4111;50.972;7.072;2022-07-04T12:02:35;2.78;;;1.30;;
8139;SDS011;4111;50.972;7.072;2022-07-04T12:05:04;3.95;;;1.33;;
8139;SDS011;4111;50.972;7.072;2022-07-04T12:07:33;1.95;;;1.20;;
8139;SDS011;4111;50.972;7.072;2022-07-04T12:10:09;3.17;;;0.98;;
8139;SDS011;4111;50.972;7.072;2022-07-04T12:12:50;4.75;;;1.33;;
8139;SDS011;4111;50.972;7.072;2022-07-04T12:15:21;3.65;;;1.25;;
8139;SDS011;4111;50.972;7.072;2022-07-04T12:17:50;2.25;;;1.08;;
8139;SDS011;4111;50.972;7.072;2022-07-04T12:20:19;4.22;;;1.20;;
8139;SDS011;4111;50.972;7.072;2022-07-04T12:22:57;2.63;;;1.27;;
8139;SDS011;4111;50.972;7.072;2022-07-04T12:25:28;3.75;;;1.10;;
8139;SDS011;4111;50.972;7.072;2022-07-04T12:28:01;2.13;;;1.50;;
8139;SDS011;4111;50.972;7.072;2022-07-04T12:30:32;3.70;;;1.30;;
8139;SDS011;4111;50.972;7.072;2022-07-04T12:33:01;4.68;;;1.33;;
8139;SDS011;4111;50.972;7.072;2022-07-04T12:35:34;3.65;;;1.52;;
8139;SDS011;4111;50.972;7.072;2022-07-04T12:40:36;5.63;;;1.50;;
8139;SDS011;4111;50.972;7.072;2022-07-04T12:43:15;2.42;;;1.13;;
8139;SDS011;4111;50.972;7.072;2022-07-04T12:45:46;3.17;;;1.50;;
8139;SDS011;4111;50.972;7.072;2022-07-04T12:48:17;2.10;;;1.15;;
8139;SDS011;4111;50.972;7.072;2022-07-04T12:50:45;1.40;;;1.20;;
8139;SDS011;4111;50.972;7.072;2022-07-04T12:53:12;4.05;;;1.20;;
8139;SDS011;4111;50.972;7.072;2022-07-04T12:55:40;1.63;;;1.05;;
8139;SDS011;4111;50.972;7.072;2022-07-04T12:58:08;0.90;;;0.90;;
8139;SDS011;4111;50.972;7.072;2022-07-04T13:00:35;3.38;;;1.27;;
8139;SDS011;4111;50.972;7.072;2022-07-04T13:03:02;3.15;;;1.08;;
8139;SDS011;4111;50.972;7.072;2022-07-04T13:05:29;3.53;;;1.30;;
8139;SDS011;4111;50.972;7.072;2022-07-04T13:07:56;2.30;;;0.95;;
8139;SDS011;4111;50.972;7.072;2022-07-04T13:10:22;3.05;;;1.15;;
8139;SDS011;4111;50.972;7.072;2022-07-04T13:12:49;2.15;;;1.13;;
8139;SDS011;4111;50.972;7.072;2022-07-04T13:15:16;4.32;;;1.27;;
8139;SDS011;4111;50.972;7.072;2022-07-04T13:17:44;3.55;;;1.40;;
8139;SDS011;4111;50.972;7.072;2022-07-04T13:20:10;2.47;;;1.00;;
8139;SDS011;4111;50.972;7.072;2022-07-04T13:22:39;2.22;;;0.90;;
8139;SDS011;4111;50.972;7.072;2022-07-04T13:25:05;1.45;;;1.20;;
8139;SDS011;4111;50.972;7.072;2022-07-04T13:27:33;2.13;;;0.90;;
8139;SDS011;4111;50.972;7.072;2022-07-04T13:29:59;1.85;;;1.20;;
8139;SDS011;4111;50.972;7.072;2022-07-04T13:32:26;3.00;;;1.10;;
8139;SDS011;4111;50.972;7.072;2022-07-04T13:34:53;2.13;;;1.20;;
8139;SDS011;4111;50.972;7.072;2022-07-04T13:37:19;2.05;;;1.10;;
8139;SDS011;4111;50.972;7.072;2022-07-04T13:39:45;5.88;;;1.60;;
8139;SDS011;4111;50.972;7.072;2022-07-04T13:42:16;4.78;;;2.03;;
8139;SDS011;4111;50.972;7.072;2022-07-04T13:45:04;3.08;;;1.30;;
8139;SDS011;4111;50.972;7.072;2022-07-04T13:47:31;4.60;;;2.17;;
8139;SDS011;4111;50.972;7.072;2022-07-04T13:49:58;3.22;;;1.00;;
8139;SDS011;4111;50.972;7.072;2022-07-04T13:52:25;3.33;;;1.00;;
8139;SDS011;4111;50.972;7.072;2022-07-04T13:54:51;1.38;;;1.27;;
8139;SDS011;4111;50.972;7.072;2022-07-04T13:57:18;5.22;;;1.17;;
8139;SDS011;4111;50.972;7.072;2022-07-04T13:59:45;1.90;;;1.13;;
8139;SDS011;4111;50.972;7.072;2022-07-04T14:02:11;3.55;;;1.15;;
8139;SDS011;4111;50.972;7.072;2022-07-04T14:04:38;3.45;;;1.10;;
8139;SDS011;4111;50.972;7.072;2022-07-04T14:07:04;1.95;;;1.00;;
8139;SDS011;4111;50.972;7.072;2022-07-04T14:09:39;2.95;;;1.08;;
8139;SDS011;4111;50.972;7.072;2022-07-04T14:12:05;5.25;;;1.00;;
8139;SDS011;4111;50.972;7.072;2022-07-04T14:14:32;3.38;;;1.10;;
8139;SDS011;4111;50.972;7.072;2022-07-04T14:16:59;1.63;;;1.20;;
8139;SDS011;4111;50.972;7.072;2022-07-04T14:19:40;5.05;;;1.50;;
8139;SDS011;4111;50.972;7.072;2022-07-04T14:22:07;1.38;;;1.20;;
8139;SDS011;4111;50.972;7.072;2022-07-04T14:24:33;2.55;;;1.45;;
8139;SDS011;4111;50.972;7.072;2022-07-04T14:27:00;3.47;;;1.20;;
8139;SDS011;4111;50.972;7.072;2022-07-04T14:29:27;2.33;;;1.13;;
8139;SDS011;4111;50.972;7.072;2022-07-04T14:31:53;1.55;;;1.33;;
8139;SDS011;4111;50.972;7.072;2022-07-04T14:34:20;3.33;;;1.40;;
8139;SDS011;4111;50.972;7.072;2022-07-04T14:36:46;2.08;;;0.93;;
8139;SDS011;4111;50.972;7.072;2022-07-04T14:39:13;2.70;;;1.30;;
8139;SDS011;4111;50.972;7.072;2022-07-04T14:41:39;2.40;;;1.20;;
8139;SDS011;4111;50.972;7.072;2022-07-04T14:44:06;1.58;;;1.10;;
8139;SDS011;4111;50.972;7.072;2022-07-04T14:46:33;2.10;;;1.38;;
8139;SDS011;4111;50.972;7.072;2022-07-04T14:48:59;2.83;;;1.20;;
8139;SDS011;4111;50.972;7.072;2022-07-04T14:51:25;4.53;;;1.73;;
8139;SDS011;4111;50.972;7.072;2022-07-04T14:53:52;1.73;;;0.90;;
8139;SDS011;4111;50.972;7.072;2022-07-04T14:56:19;2.13;;;1.25;;
8139;SDS011;4111;50.972;7.072;2022-07-04T14:58:46;3.92;;;1.20;;
8139;SDS011;4111;50.972;7.072;2022-07-04T15:01:13;3.00;;;1.20;;
8139;SDS011;4111;50.972;7.072;2022-07-04T15:03:39;2.83;;;1.17;;
8139;SDS011;4111;50.972;7.072;2022-07-04T15:06:06;2.75;;;1.40;;
8139;SDS011;4111;50.972;7.072;2022-07-04T15:08:33;5.13;;;1.35;;
8139;SDS011;4111;50.972;7.072;2022-07-04T15:10:59;3.90;;;1.70;;
8139;SDS011;4111;50.972;7.072;2022-07-04T15:13:26;1.48;;;1.30;;
8139;SDS011;4111;50.972;7.072;2022-07-04T15:15:54;1.55;;;1.10;;
8139;SDS011;4111;50.972;7.072;2022-07-04T15:18:41;2.30;;;1.15;;
8139;SDS011;4111;50.972;7.072;2022-07-04T15:21:07;3.60;;;1.35;;
8139;SDS011;4111;50.972;7.072;2022-07-04T15:23:52;1.20;;;1.10;;
8139;SDS011;4111;50.972;7.072;2022-07-04T15:26:40;1.73;;;1.20;;
8139;SDS011;4111;50.972;7.072;2022-07-04T15:29:08;2.55;;;1.30;;
8139;SDS011;4111;50.972;7.072;2022-07-04T15:31:38;1.45;;;1.05;;
8139;SDS011;4111;50.972;7.072;2022-07-04T15:34:05;3.33;;;1.38;;
8139;SDS011;4111;50.972;7.072;2022-07-04T15:36:32;5.65;;;1.88;;
8139;SDS011;4111;50.972;7.072;2022-07-04T15:38:58;4.20;;;1.30;;
8139;SDS011;4111;50.972;7.072;2022-07-04T15:41:25;2.30;;;1.25;;
8139;SDS011;4111;50.972;7.072;2022-07-04T15:43:52;2.72;;;1.33;;
8139;SDS011;4111;50.972;7.072;2022-07-04T15:46:19;1.48;;;1.25;;
8139;SDS011;4111;50.972;7.072;2022-07-04T15:48:48;1.70;;;1.25;;
8139;SDS011;4111;50.972;7.072;2022-07-04T15:51:14;2.03;;;1.08;;
8139;SDS011;4111;50.972;7.072;2022-07-04T15:54:01;4.38;;;1.20;;
8139;SDS011;4111;50.972;7.072;2022-07-04T15:56:27;4.28;;;1.30;;
8139;SDS011;4111;50.972;7.072;2022-07-04T15:58:54;3.03;;;1.20;;
8139;SDS011;4111;50.972;7.072;2022-07-04T16:01:20;1.92;;;1.17;;
8139;SDS011;4111;50.972;7.072;2022-07-04T16:03:47;2.65;;;1.45;;
8139;SDS011;4111;50.972;7.072;2022-07-04T16:06:13;4.18;;;1.38;;
8139;SDS011;4111;50.972;7.072;2022-07-04T16:08:40;5.22;;;1.50;;
8139;SDS011;4111;50.972;7.072;2022-07-04T16:11:06;4.25;;;1.20;;